Time;durP1;ratioP1;P1;durP2;ratioP2;P2;SDS_P1;SDS_P2;PMS_P1;PMS_P2;Temp;Humidity;BMP_temperature;BMP_pressure;BME280_temperature;BME280_humidity;BME280_pressure;Samples;Min_cycle;Max_cycle;Signal;HPM_P1;HPM_P2
2021/12/05 00:23:57;;;;;;;27.55;15.25;;;;;;;2.37;82.56;98559.65;3015479;79;21000;-67
2021/12/05 00:28:02;;;;;;;24.47;16.07;;;;;;;2.27;83.56;98562.59;3012630;79;20982;-67
2021/12/05 00:32:04;;;;;;;22.42;13.50;;;;;;;2.26;84.03;98558.30;3013129;79;21007;-67
2021/12/05 01:10:48;;;;;;;17.75;13.55;;;;;;;3.09;81.82;98588.34;2944699;79;20964;-67
2021/12/05 01:18:55;;;;;;;21.73;14.30;;;;;;;3.00;84.17;98589.89;2969271;80;20988;-67
2021/12/05 01:23:08;;;;;;;21.45;14.58;;;;;;;2.97;85.22;98581.80;2969067;79;20984;-67
2021/12/05 01:27:16;;;;;;;15.53;11.55;;;;;;;2.92;86.76;98585.73;2968555;79;21050;-68
2021/12/05 01:31:23;;;;;;;18.95;13.58;;;;;;;2.92;87.44;98590.48;2968282;79;20975;-68
2021/12/05 01:39:47;;;;;;;23.55;14.38;;;;;;;2.96;88.25;98588.47;2969025;80;21015;-67
2021/12/05 02:35:23;;;;;;;19.42;12.47;;;;;;;2.87;91.29;98598.39;3005540;79;21019;-69
2021/12/05 02:39:30;;;;;;;15.60;12.93;;;;;;;2.95;90.71;98610.44;3003761;79;20980;-69
2021/12/05 02:43:29;;;;;;;19.90;15.65;;;;;;;3.03;90.40;98619.05;3027456;78;20995;-69
2021/12/05 02:47:29;;;;;;;17.40;15.43;;;;;;;3.14;89.87;98611.14;3028675;78;20955;-69
2021/12/05 02:51:33;;;;;;;14.83;13.22;;;;;;;3.19;89.69;98612.96;3029285;78;21003;-70
2021/12/05 02:55:42;;;;;;;22.95;16.02;;;;;;;3.22;89.33;98611.40;3029167;78;21031;-69
2021/12/05 02:59:48;;;;;;;24.10;15.68;;;;;;;3.28;89.26;98621.42;3029096;78;20943;-70
2021/12/05 03:03:47;;;;;;;34.15;22.85;;;;;;;3.31;89.12;98623.45;3028409;78;21014;-70
2021/12/05 03:07:50;;;;;;;24.05;13.70;;;;;;;3.36;88.90;98625.27;3003982;78;21006;-70
2021/12/05 03:11:53;;;;;;;72.00;38.23;;;;;;;3.36;88.70;98624.77;3029479;78;21018;-69
2021/12/05 03:15:56;;;;;;;58.45;33.42;;;;;;;3.33;88.65;98621.06;3029339;78;20990;-69
2021/12/05 03:19:58;;;;;;;60.38;32.42;;;;;;;3.27;88.93;98633.39;3029758;78;21010;-69
2021/12/05 03:24:01;;;;;;;21.65;19.40;;;;;;;3.27;89.08;98636.84;3029850;78;21468;-70
2021/12/05 03:28:05;;;;;;;21.60;14.58;;;;;;;3.28;88.87;98638.50;3028857;78;21340;-70
2021/12/05 03:32:07;;;;;;;18.57;13.20;;;;;;;3.17;89.56;98641.15;3025540;78;20979;-70
2021/12/05 03:36:10;;;;;;;13.95;11.28;;;;;;;3.12;89.87;98644.13;2978868;80;21042;-70
2021/12/05 03:40:13;;;;;;;15.35;12.65;;;;;;;3.14;89.71;98638.73;3008788;78;21022;-70
2021/12/05 03:44:17;;;;;;;16.70;11.75;;;;;;;3.22;89.70;98645.56;2995488;79;21054;-70
2021/12/05 03:48:23;;;;;;;13.93;11.15;;;;;;;3.26;89.16;98650.93;2969238;80;21022;-70
2021/12/05 03:52:24;;;;;;;16.02;10.82;;;;;;;3.26;89.25;98648.30;2969635;79;21023;-70
2021/12/05 03:56:27;;;;;;;29.60;19.25;;;;;;;3.28;89.21;98649.52;3000869;79;20987;-70
2021/12/05 04:00:33;;;;;;;42.90;26.25;;;;;;;3.34;89.06;98649.48;2988399;79;20957;-69
2021/12/05 04:04:36;;;;;;;32.25;21.62;;;;;;;3.32;88.97;98657.51;2905647;81;21011;-70
2021/12/05 04:08:43;;;;;;;31.35;20.50;;;;;;;3.34;89.01;98657.38;2935682;81;21070;-70
2021/12/05 04:12:42;;;;;;;65.52;37.28;;;;;;;3.44;88.82;98662.28;3009161;79;21055;-70
2021/12/05 04:16:44;;;;;;;45.08;26.20;;;;;;;3.43;88.40;98661.92;3009911;79;20979;-70
2021/12/05 04:20:48;;;;;;;20.50;15.75;;;;;;;3.47;88.47;98660.72;2932756;79;21070;-69
2021/12/05 04:24:50;;;;;;;42.78;23.45;;;;;;;3.47;88.25;98663.84;2867699;83;20997;-71
2021/12/05 04:28:53;;;;;;;89.75;53.48;;;;;;;3.46;88.12;98666.94;2867644;83;21617;-72
2021/12/05 04:32:55;;;;;;;45.23;26.40;;;;;;;3.54;88.42;98677.70;2867715;83;21097;-71
2021/12/05 04:36:57;;;;;;;51.48;28.83;;;;;;;3.67;88.20;98679.35;2867749;82;21038;-72
2021/12/05 04:41:01;;;;;;;41.55;28.85;;;;;;;3.72;87.52;98689.02;2836307;83;20952;-71
2021/12/05 04:45:11;;;;;;;43.45;26.05;;;;;;;3.70;87.12;98685.68;2959572;80;20983;-71
2021/12/05 04:49:14;;;;;;;52.27;31.68;;;;;;;3.64;87.42;98685.70;2964710;79;21368;-71
2021/12/05 04:53:16;;;;;;;36.53;23.77;;;;;;;3.54;87.69;98690.00;2964740;80;21555;-71
2021/12/05 04:57:17;;;;;;;38.38;23.25;;;;;;;3.59;87.79;98696.22;2965531;80;20968;-71
2021/12/05 05:01:20;;;;;;;46.63;28.52;;;;;;;3.60;87.85;98694.77;2965904;79;20983;-71
2021/12/05 05:05:23;;;;;;;22.37;16.75;;;;;;;3.57;87.65;98703.75;2965787;79;21035;-72
2021/12/05 05:09:25;;;;;;;24.63;16.37;;;;;;;3.36;88.72;98709.38;2902104;82;21031;-71
2021/12/05 05:13:27;;;;;;;23.10;16.37;;;;;;;3.41;88.55;98711.98;2965543;79;20960;-71
2021/12/05 05:17:28;;;;;;;29.25;19.60;;;;;;;3.41;88.74;98709.84;2965850;79;20967;-71
2021/12/05 05:21:40;;;;;;;19.23;14.45;;;;;;;3.39;88.53;98719.64;2902815;82;20967;-71
2021/12/05 05:43:12;;;;;;;19.07;14.03;;;;;;;3.17;89.96;98741.00;2969753;79;20998;-72
2021/12/05 05:47:06;;;;;;;36.03;23.40;;;;;;;3.11;90.43;98733.56;2967540;79;20983;-71
2021/12/05 05:51:05;;;;;;;26.62;17.92;;;;;;;3.13;90.35;98738.22;2963964;79;21026;-71
2021/12/05 05:55:08;;;;;;;32.28;19.92;;;;;;;3.07;91.10;98736.07;2952778;80;20971;-71
2021/12/05 05:59:19;;;;;;;45.98;24.02;;;;;;;3.10;90.74;98746.34;2943252;79;20991;-72
2021/12/05 06:03:22;;;;;;;35.98;21.97;;;;;;;3.13;90.89;98743.02;2959143;80;20979;-72
2021/12/05 06:07:25;;;;;;;19.10;13.68;;;;;;;3.13;90.89;98750.90;2969245;79;21014;-71
2021/12/05 06:11:27;;;;;;;19.07;14.10;;;;;;;2.98;91.80;98752.90;2954846;79;21055;-71
2021/12/05 06:15:30;;;;;;;16.50;13.15;;;;;;;2.90;92.47;98754.42;2917142;81;21035;-70
2021/12/05 06:19:32;;;;;;;22.37;14.80;;;;;;;2.76;93.46;98757.59;2917294;81;21452;-71
2021/12/05 06:23:34;;;;;;;27.60;19.35;;;;;;;2.68;93.96;98763.41;2918201;80;21034;-71
2021/12/05 06:27:36;;;;;;;28.45;22.73;;;;;;;2.75;93.76;98766.87;2951070;80;21042;-71
2021/12/05 06:48:43;;;;;;;22.37;15.50;;;;;;;3.06;92.52;98786.48;2969151;79;21019;-70
2021/12/05 06:52:44;;;;;;;;;;;;;;;3.11;92.23;98792.68;2971776;80;21475;-69
2021/12/05 06:56:46;;;;;;;12.85;10.00;;;;;;;3.02;92.74;98799.95;2968995;79;20113;-70
2021/12/05 07:00:48;;;;;;;14.18;12.73;;;;;;;3.04;92.66;98807.23;2969166;79;21010;-71
2021/12/05 07:05:07;;;;;;;18.57;15.18;;;;;;;3.01;93.17;98809.61;2969264;80;21026;-71
2021/12/05 07:09:00;;;;;;;27.32;20.30;;;;;;;3.08;92.99;98806.91;2967205;79;20975;-70
2021/12/05 07:17:08;;;;;;;16.30;13.95;;;;;;;3.37;92.35;98818.81;2939873;80;20967;-70
2021/12/05 07:21:26;;;;;;;14.45;10.58;;;;;;;3.51;91.94;98823.84;2969793;80;20980;-70
2021/12/05 07:25:34;;;;;;;13.55;11.28;;;;;;;3.65;91.54;98829.39;2968111;79;21470;-70
2021/12/05 07:42:38;;;;;;;9.10;8.15;;;;;;;4.24;89.33;98832.75;2920778;81;21019;-71
2021/12/05 07:46:37;;;;;;;12.18;9.08;;;;;;;4.28;88.80;98845.17;2920422;81;21007;-70
2021/12/05 07:50:57;;;;;;;13.65;8.85;;;;;;;4.32;88.74;98845.28;2911154;81;21005;-71
2021/12/05 07:54:56;;;;;;;10.50;7.60;;;;;;;4.33;88.76;98850.94;2878399;82;21058;-70
2021/12/05 07:59:11;;;;;;;14.75;8.80;;;;;;;4.38;88.73;98848.77;2878229;82;20991;-70
2021/12/05 08:16:09;;;;;;;15.75;11.55;;;;;;;4.38;89.23;98863.25;2908347;82;20976;-71
2021/12/05 08:20:11;;;;;;;14.55;11.93;;;;;;;4.38;89.43;98868.97;2895877;82;21023;-72
2021/12/05 08:24:13;;;;;;;14.98;11.88;;;;;;;4.38;89.75;98879.05;2888819;81;21074;-73
2021/12/05 08:32:40;;;;;;;13.53;10.23;;;;;;;4.47;90.65;98884.53;2890029;82;20998;-72
2021/12/05 08:45:47;;;;;;;14.03;11.22;;;;;;;4.51;91.55;98882.00;2896255;81;21022;-77
2021/12/05 10:06:50;;;;;;;14.13;10.13;;;;;;;4.65;93.49;98919.95;2905798;82;21067;-71
2021/12/05 10:15:24;;;;;;;12.70;9.05;;;;;;;4.78;92.93;98928.20;2864410;83;21023;-71
2021/12/05 10:19:46;;;;;;;16.75;10.40;;;;;;;4.76;92.65;98919.59;2860714;83;21008;-73
2021/12/05 10:36:47;;;;;;;17.37;11.28;;;;;;;4.88;92.62;98929.62;2867540;83;20959;-71
2021/12/05 10:41:19;;;;;;;18.32;11.93;;;;;;;4.95;92.65;98931.65;2849598;83;21038;-73
2021/12/05 10:45:11;;;;;;;17.42;13.00;;;;;;;4.91;92.59;98946.50;2820774;83;21059;-73
2021/12/05 10:49:15;;;;;;;16.32;11.70;;;;;;;4.90;92.91;98947.47;2822198;84;21042;-73
2021/12/05 10:53:41;;;;;;;17.48;12.28;;;;;;;4.91;92.93;98942.55;2842835;83;21027;-73
2021/12/05 10:57:51;;;;;;;18.42;12.98;;;;;;;4.96;92.91;98941.70;2871117;82;21055;-72
2021/12/05 11:02:00;;;;;;;17.60;11.70;;;;;;;5.11;92.84;98946.20;2964555;80;21022;-72
2021/12/05 11:06:05;;;;;;;16.52;11.70;;;;;;;5.21;92.28;98948.47;2961329;80;21027;-74
2021/12/05 11:10:10;;;;;;;13.95;12.43;;;;;;;5.37;91.99;98949.37;2962474;80;20979;-72
2021/12/05 11:14:25;;;;;;;16.82;12.58;;;;;;;5.50;91.03;98939.14;2965346;80;21014;-71
2021/12/05 11:18:46;;;;;;;18.92;13.08;;;;;;;5.58;90.09;98938.02;2961109;79;20979;-70
2021/12/05 11:22:51;;;;;;;20.25;14.05;;;;;;;5.69;90.08;98931.84;2953011;80;21018;-69
2021/12/05 11:27:31;;;;;;;16.52;13.88;;;;;;;5.53;89.89;98933.14;2964916;79;21019;-69
2021/12/05 11:31:35;;;;;;;23.02;12.73;;;;;;;5.60;90.13;98941.86;2937801;80;29649;-69
2021/12/05 11:35:45;;;;;;;15.20;12.07;;;;;;;5.77;89.52;98942.61;2965604;80;21031;-70
2021/12/05 11:39:47;;;;;;;17.57;11.10;;;;;;;5.90;89.25;98941.09;2967868;78;20995;-70
2021/12/05 11:43:56;;;;;;;16.23;11.33;;;;;;;5.99;88.92;98947.41;3027569;78;20987;-69
2021/12/05 11:47:58;;;;;;;16.50;11.20;;;;;;;6.05;88.74;98945.59;3027214;78;20986;-69
2021/12/05 11:52:02;;;;;;;18.90;11.40;;;;;;;6.03;88.64;98959.91;3030775;78;20967;-69
2021/12/05 11:56:05;;;;;;;18.05;12.03;;;;;;;6.01;88.46;98962.66;3039626;77;20990;-69
2021/12/05 12:00:17;;;;;;;29.92;12.63;;;;;;;6.05;88.23;98961.43;3033128;78;21006;-69
2021/12/05 12:04:24;;;;;;;17.65;11.48;;;;;;;6.03;88.25;98976.56;3033053;78;21025;-69
2021/12/05 12:08:26;;;;;;;18.02;13.28;;;;;;;6.07;88.07;98977.98;3033472;78;20994;-69
2021/12/05 12:12:29;;;;;;;20.17;10.53;;;;;;;6.04;87.95;98988.80;3033635;77;20981;-69
2021/12/05 12:16:33;;;;;;;14.93;10.65;;;;;;;6.00;88.00;98988.67;3033506;78;20985;-69
2021/12/05 12:20:39;;;;;;;12.05;9.53;;;;;;;5.92;88.36;98992.45;3030052;78;21046;-69
2021/12/05 12:24:40;;;;;;;17.35;11.68;;;;;;;5.96;88.66;98993.86;3028196;78;20983;-69
2021/12/05 12:28:43;;;;;;;27.15;13.60;;;;;;;5.95;88.80;98996.16;3032485;78;20936;-69
2021/12/05 12:32:48;;;;;;;17.35;12.45;;;;;;;5.85;89.03;98986.34;3029808;78;21380;-69
2021/12/05 12:37:00;;;;;;;17.07;11.43;;;;;;;5.75;89.55;98995.16;3030097;78;21002;-69
2021/12/05 12:41:19;;;;;;;17.52;12.43;;;;;;;5.78;89.80;99012.05;2998241;78;21082;-68
2021/12/05 12:45:21;;;;;;;14.33;10.85;;;;;;;5.81;89.78;99025.83;2975105;79;21015;-69
2021/12/05 12:49:31;;;;;;;14.30;11.03;;;;;;;5.76;89.81;99014.83;2978818;79;20967;-69
2021/12/05 12:53:40;;;;;;;14.55;9.43;;;;;;;5.72;90.00;99008.95;2969592;79;20963;-69
2021/12/05 12:57:42;;;;;;;12.30;10.15;;;;;;;5.72;90.22;99007.64;2996829;79;20999;-69
2021/12/05 13:14:04;;;;;;;17.17;13.25;;;;;;;5.57;90.92;99003.14;3002832;79;21011;-69
2021/12/05 13:18:14;;;;;;;17.52;13.05;;;;;;;5.57;90.94;99009.73;2983585;77;20991;-69
2021/12/05 13:22:16;;;;;;;18.85;11.20;;;;;;;5.69;90.78;99028.14;2989548;79;21003;-69
2021/12/05 13:26:33;;;;;;;24.95;14.60;;;;;;;5.77;90.47;99027.52;2986706;79;21436;-69
2021/12/05 13:30:35;;;;;;;15.32;12.25;;;;;;;5.71;90.05;99034.16;2990041;79;21046;-69
2021/12/05 13:34:48;;;;;;;20.75;14.80;;;;;;;5.57;90.37;99034.80;2993934;79;21058;-69
2021/12/05 13:38:50;;;;;;;24.35;12.90;;;;;;;5.51;90.46;99039.73;2996386;79;20976;-69
2021/12/05 13:43:06;;;;;;;22.85;13.00;;;;;;;5.40;91.10;99043.23;2984521;78;21007;-69
2021/12/05 13:47:18;;;;;;;28.47;17.07;;;;;;;5.31;91.60;99040.03;2975606;80;21022;-69
2021/12/05 13:51:24;;;;;;;27.35;20.52;;;;;;;5.31;92.01;99043.48;3008550;78;21037;-69
2021/12/05 13:55:49;;;;;;;21.27;17.85;;;;;;;5.32;92.65;99035.93;3003244;78;21038;-70
2021/12/05 13:59:51;;;;;;;38.83;24.80;;;;;;;5.29;93.00;99042.28;2994988;78;21038;-68
2021/12/05 14:04:09;;;;;;;51.80;32.17;;;;;;;5.22;93.59;99050.33;2993332;78;21366;-69
2021/12/05 14:08:10;;;;;;;34.67;22.95;;;;;;;5.09;94.17;99053.56;2945226;80;21011;-69
2021/12/05 14:12:38;;;;;;;24.85;14.38;;;;;;;5.12;94.03;99065.22;2944754;79;20987;-69
2021/12/05 14:16:38;;;;;;;23.05;12.68;;;;;;;5.12;93.33;99062.58;2917739;81;20995;-68
2021/12/05 14:20:40;;;;;;;24.92;16.27;;;;;;;5.13;92.08;99074.80;2918608;81;21007;-68
2021/12/05 14:24:46;;;;;;;23.07;16.30;;;;;;;5.18;91.85;99082.32;2918576;81;21010;-69
2021/12/05 14:29:19;;;;;;;27.35;18.15;;;;;;;5.29;91.46;99085.78;2918676;81;20998;-69
2021/12/05 14:33:21;;;;;;;25.72;15.58;;;;;;;5.43;91.37;99091.31;2918081;81;21003;-69
2021/12/05 14:37:27;;;;;;;23.20;18.57;;;;;;;5.58;90.71;99097.61;2918779;81;21011;-69
2021/12/05 14:41:32;;;;;;;33.73;25.08;;;;;;;5.69;90.08;99102.02;2933581;80;21073;-68
2021/12/05 14:45:39;;;;;;;42.93;27.52;;;;;;;5.73;89.73;99110.08;2970249;80;20959;-68
2021/12/05 14:49:52;;;;;;;39.42;27.30;;;;;;;5.78;89.64;99117.59;2969912;80;21074;-68
2021/12/05 14:53:54;;;;;;;37.25;24.90;;;;;;;5.86;89.66;99125.25;2969725;80;21012;-68
2021/12/05 14:58:00;;;;;;;38.60;27.62;;;;;;;5.97;89.27;99128.84;2969843;80;21009;-68
2021/12/05 15:02:04;;;;;;;38.33;27.00;;;;;;;5.99;88.41;99134.83;2969327;80;21014;-68
2021/12/05 15:06:07;;;;;;;47.17;27.17;;;;;;;5.99;87.88;99134.83;2970037;80;21051;-68
2021/12/05 15:10:11;;;;;;;56.35;30.02;;;;;;;5.97;87.58;99138.91;2970112;80;20975;-68
2021/12/05 15:14:13;;;;;;;48.05;27.65;;;;;;;5.95;87.30;99140.83;2969664;80;20967;-68
2021/12/05 15:18:19;;;;;;;49.03;28.05;;;;;;;5.97;87.07;99142.04;2969780;80;21522;-68
2021/12/05 15:22:21;;;;;;;51.10;29.23;;;;;;;5.98;86.76;99138.44;2969340;80;21015;-69
2021/12/05 15:26:28;;;;;;;44.60;28.10;;;;;;;5.84;85.78;99142.20;2969808;80;21038;-69
2021/12/05 15:30:37;;;;;;;32.78;20.52;;;;;;;5.71;86.11;99147.13;2969226;80;20983;-69
2021/12/05 15:34:39;;;;;;;33.08;20.62;;;;;;;5.58;86.39;99149.91;2969685;80;20968;-68
2021/12/05 15:38:41;;;;;;;31.23;20.45;;;;;;;5.43;86.95;99145.84;2969663;80;20979;-68
2021/12/05 15:42:43;;;;;;;27.32;20.70;;;;;;;5.40;87.25;99148.72;2959380;80;21425;-69
2021/12/05 15:46:45;;;;;;;26.27;18.82;;;;;;;5.37;87.41;99152.43;2951067;80;21071;-68
2021/12/05 15:50:50;;;;;;;31.42;19.42;;;;;;;5.24;87.77;99152.55;2951074;80;21291;-68
2021/12/05 15:54:53;;;;;;;25.32;18.02;;;;;;;5.04;88.70;99159.84;2950897;80;20976;-69
2021/12/05 15:59:02;;;;;;;27.32;18.00;;;;;;;4.82;89.85;99158.86;2950832;80;21015;-68
2021/12/05 16:03:15;;;;;;;30.72;18.15;;;;;;;4.64;91.19;99165.88;2950494;80;20975;-69
2021/12/05 16:07:19;;;;;;;36.68;15.48;;;;;;;4.54;92.01;99168.36;2950842;80;21043;-69
2021/12/05 16:11:21;;;;;;;22.13;15.58;;;;;;;4.40;93.06;99168.54;2950875;80;21475;-69
2021/12/05 16:15:27;;;;;;;21.12;13.93;;;;;;;4.37;93.07;99179.30;3005124;79;20968;-69
2021/12/05 16:19:30;;;;;;;26.27;16.47;;;;;;;4.34;93.30;99175.12;3005456;79;20959;-69
2021/12/05 16:23:35;;;;;;;21.00;14.55;;;;;;;4.29;93.45;99171.51;3004998;79;21010;-69
2021/12/05 16:27:47;;;;;;;18.62;12.40;;;;;;;4.28;93.59;99178.19;3005198;79;20999;-69
2021/12/05 16:31:57;;;;;;;19.98;14.68;;;;;;;4.24;93.78;99183.32;3005102;79;20980;-69
2021/12/05 16:35:59;;;;;;;21.82;13.95;;;;;;;4.31;93.36;99190.30;3005027;79;20995;-69
2021/12/05 16:40:02;;;;;;;19.40;14.33;;;;;;;4.26;93.38;99197.21;3005123;79;21014;-69
2021/12/05 16:44:14;;;;;;;18.77;14.13;;;;;;;4.36;93.12;99205.27;3028592;78;21006;-69
2021/12/05 16:48:18;;;;;;;26.12;15.63;;;;;;;4.35;92.99;99217.61;3034237;78;20983;-68
2021/12/05 16:52:29;;;;;;;24.87;15.08;;;;;;;4.46;92.87;99215.97;3033565;78;20995;-68
2021/12/05 16:56:49;;;;;;;23.32;16.85;;;;;;;4.47;92.43;99213.70;3033595;78;21003;-68
2021/12/05 17:00:52;;;;;;;18.35;14.10;;;;;;;4.54;91.92;99216.27;3033656;78;20998;-68
2021/12/05 17:05:06;;;;;;;18.17;14.95;;;;;;;4.60;91.55;99226.33;3033933;78;21014;-68
2021/12/05 17:09:13;;;;;;;25.43;17.37;;;;;;;4.66;90.88;99229.82;3034109;78;20983;-69
2021/12/05 17:13:34;;;;;;;18.37;14.60;;;;;;;4.57;90.13;99237.10;3034168;78;21021;-69
2021/12/05 17:17:36;;;;;;;21.15;15.08;;;;;;;4.48;90.05;99245.20;3031190;78;20998;-68
2021/12/05 17:21:48;;;;;;;26.87;18.37;;;;;;;4.43;89.93;99254.75;3034243;78;21002;-68
2021/12/05 17:25:55;;;;;;;30.37;20.05;;;;;;;4.45;89.70;99255.11;3034022;78;21052;-69
2021/12/05 17:29:57;;;;;;;30.43;20.27;;;;;;;4.43;89.68;99259.19;3034331;78;21010;-68
2021/12/05 17:34:04;;;;;;;31.07;20.20;;;;;;;4.43;89.71;99263.97;3034042;78;21002;-68
2021/12/05 17:38:05;;;;;;;32.35;21.05;;;;;;;4.37;89.70;99271.00;3033940;78;20994;-68
2021/12/05 17:42:15;;;;;;;27.95;19.77;;;;;;;4.38;89.61;99264.78;3026544;78;21011;-68
2021/12/05 17:46:17;;;;;;;30.75;20.12;;;;;;;4.39;89.54;99269.09;3002575;79;21471;-69
2021/12/05 17:50:20;;;;;;;32.75;21.33;;;;;;;4.39;89.60;99273.50;3005468;79;21015;-69
2021/12/05 17:54:30;;;;;;;38.30;25.57;;;;;;;4.34;89.73;99269.91;3005143;79;20988;-69
2021/12/05 18:02:53;;;;;;;39.60;24.80;;;;;;;4.23;89.78;99272.47;3005376;79;21019;-68
2021/12/05 18:06:51;;;;;;;41.35;27.15;;;;;;;4.22;89.82;99288.72;3004697;79;21011;-68
2021/12/05 18:11:08;;;;;;;48.68;26.97;;;;;;;4.13;89.69;99291.56;2970215;79;21078;-75
2021/12/05 18:15:16;;;;;;;43.40;24.92;;;;;;;3.99;89.36;99289.06;2919413;81;21046;-75
2021/12/05 18:19:20;;;;;;;39.15;22.65;;;;;;;3.82;89.13;99308.17;2916710;81;20982;-76
2021/12/05 18:23:22;;;;;;;41.95;21.33;;;;;;;3.76;89.23;99312.56;2919270;81;20986;-76
2021/12/05 18:27:24;;;;;;;42.45;26.00;;;;;;;3.65;89.53;99321.65;2916651;81;21526;-76
2021/12/05 18:31:28;;;;;;;31.42;22.20;;;;;;;3.60;89.87;99323.77;2919324;81;21054;-76
2021/12/05 18:35:32;;;;;;;40.75;25.60;;;;;;;3.55;90.34;99335.44;2916774;81;20999;-76
2021/12/05 18:39:39;;;;;;;50.35;28.70;;;;;;;3.47;90.76;99333.78;2918829;81;21026;-75
2021/12/05 18:43:43;;;;;;;40.83;26.20;;;;;;;3.34;91.24;99345.61;2916478;81;21490;-76
2021/12/05 18:47:46;;;;;;;41.02;24.72;;;;;;;3.30;91.47;99348.08;2919101;81;20987;-77
2021/12/05 18:51:47;;;;;;;49.35;28.67;;;;;;;3.27;91.47;99351.73;2894892;81;21027;-77
2021/12/05 18:55:51;;;;;;;54.25;31.42;;;;;;;3.12;91.83;99359.31;2919304;81;21045;-77
2021/12/05 19:00:05;;;;;;;47.98;30.00;;;;;;;3.08;92.16;99367.03;2916289;81;21006;-76
2021/12/05 19:12:33;;;;;;;58.15;32.80;;;;;;;3.10;92.42;99367.31;2899153;81;21035;-71
2021/12/05 19:16:35;;;;;;;64.62;35.35;;;;;;;3.12;92.08;99375.08;2915483;80;21014;-72
2021/12/05 19:20:36;;;;;;;60.33;33.08;;;;;;;3.00;92.02;99379.36;2923157;80;20999;-73
2021/12/05 19:24:39;;;;;;;61.08;34.45;;;;;;;2.88;91.91;99388.88;2923405;81;20972;-73
2021/12/05 19:28:40;;;;;;;61.98;34.00;;;;;;;2.93;92.14;99394.67;2969722;80;20932;-72
2021/12/05 19:32:42;;;;;;;60.65;36.68;;;;;;;2.95;91.92;99399.38;2969926;80;20958;-71
2021/12/05 19:36:44;;;;;;;69.82;41.55;;;;;;;3.01;91.83;99406.00;2926199;81;21050;-72
2021/12/05 19:40:46;;;;;;;68.62;40.50;;;;;;;3.11;91.45;99407.56;2949858;80;21023;-71
2021/12/05 19:44:49;;;;;;;79.67;41.70;;;;;;;3.18;91.17;99399.67;2949885;80;20987;-71
2021/12/05 19:48:51;;;;;;;68.95;38.78;;;;;;;3.22;90.62;99397.20;2949928;80;21013;-72
2021/12/05 19:52:54;;;;;;;57.83;34.63;;;;;;;3.23;90.26;99403.29;2950673;79;20961;-73
2021/12/05 19:56:57;;;;;;;65.40;35.28;;;;;;;3.19;90.09;99400.50;2959221;80;21000;-73
2021/12/05 20:01:00;;;;;;;62.03;38.58;;;;;;;3.17;90.33;99400.61;2959808;80;20941;-71
2021/12/05 20:05:02;;;;;;;70.80;39.05;;;;;;;3.08;90.74;99395.48;2959592;80;21004;-73
2021/12/05 20:09:07;;;;;;;63.08;38.60;;;;;;;2.99;91.27;99403.49;2961554;80;21477;-73
2021/12/05 20:13:10;;;;;;;69.13;38.00;;;;;;;3.00;91.65;99401.69;2967457;80;20982;-71
2021/12/05 20:17:12;;;;;;;82.90;41.92;;;;;;;3.05;91.64;99404.89;2967723;80;21008;-73
2021/12/05 20:21:14;;;;;;;78.35;43.60;;;;;;;2.92;91.67;99404.81;2967741;80;20961;-73
2021/12/05 20:25:18;;;;;;;63.08;34.43;;;;;;;2.80;92.17;99406.44;2967798;80;21065;-73
2021/12/05 20:29:21;;;;;;;79.85;43.60;;;;;;;2.61;92.83;99412.48;2963768;79;20970;-71
2021/12/05 20:33:22;;;;;;;91.02;45.75;;;;;;;2.49;93.38;99408.39;2962209;80;21007;-74
2021/12/05 20:37:24;;;;;;;69.77;40.90;;;;;;;2.66;93.18;99414.37;2956718;80;21062;-74
2021/12/05 20:41:26;;;;;;;81.82;46.30;;;;;;;2.68;93.31;99410.69;2956837;80;20998;-74
2021/12/05 20:45:30;;;;;;;68.80;41.90;;;;;;;2.82;93.12;99411.61;2957010;80;21020;-73
2021/12/05 20:49:32;;;;;;;77.00;41.13;;;;;;;2.88;92.81;99413.01;2956749;80;21007;-74
2021/12/05 20:53:35;;;;;;;76.33;44.50;;;;;;;2.87;92.59;99413.47;2956805;80;20995;-73
2021/12/05 20:57:37;;;;;;;70.17;43.48;;;;;;;2.90;92.40;99424.25;2957468;80;21007;-74
2021/12/05 21:01:39;;;;;;;95.50;57.50;;;;;;;2.90;92.19;99428.20;2958449;79;20996;-73
2021/12/05 21:05:46;;;;;;;77.62;41.33;;;;;;;2.85;92.36;99434.59;2925595;81;21478;-73
2021/12/05 21:09:48;;;;;;;101.60;59.77;;;;;;;2.75;92.60;99440.50;2925360;81;21033;-72
2021/12/05 21:13:50;;;;;;;80.72;48.20;;;;;;;2.83;92.62;99430.37;2925667;81;21521;-74
2021/12/05 21:17:52;;;;;;;94.30;54.93;;;;;;;2.80;92.85;99450.27;2973833;80;20978;-74
2021/12/05 21:21:55;;;;;;;92.92;50.70;;;;;;;2.76;92.98;99450.09;2978029;80;21006;-74
2021/12/05 21:25:58;;;;;;;92.45;54.48;;;;;;;2.60;93.45;99444.48;2977751;80;20962;-73
2021/12/05 21:30:00;;;;;;;113.40;52.88;;;;;;;2.53;94.02;99444.47;2977249;80;21030;-74
2021/12/05 21:34:02;;;;;;;100.75;57.93;;;;;;;2.45;94.41;99448.05;2977716;80;20943;-74
2021/12/05 21:38:08;;;;;;;76.45;46.30;;;;;;;2.46;94.78;99456.30;2977897;80;20966;-73
2021/12/05 21:42:12;;;;;;;99.62;57.85;;;;;;;2.41;94.93;99443.44;2977639;80;20971;-73
2021/12/05 21:46:15;;;;;;;104.27;53.40;;;;;;;2.47;95.03;99456.66;2978227;80;20967;-69
2021/12/05 21:50:18;;;;;;;74.12;41.65;;;;;;;2.45;95.02;99454.13;2978296;80;20963;-70
2021/12/05 21:54:20;;;;;;;83.20;47.88;;;;;;;2.33;95.21;99448.33;2978223;80;20994;-70
2021/12/05 21:58:23;;;;;;;75.15;45.25;;;;;;;2.42;95.22;99445.13;2978387;80;21006;-70
2021/12/05 22:02:26;;;;;;;73.22;44.13;;;;;;;2.31;95.73;99439.23;2978497;80;21030;-69
2021/12/05 22:06:27;;;;;;;65.85;35.75;;;;;;;2.40;95.35;99447.01;2978733;80;20986;-70
2021/12/05 22:10:30;;;;;;;74.20;46.95;;;;;;;2.26;95.76;99446.55;2974710;79;20975;-70
2021/12/05 22:14:32;;;;;;;96.12;50.63;;;;;;;2.28;95.84;99442.05;2970336;80;20947;-69
2021/12/05 22:18:37;;;;;;;75.00;47.80;;;;;;;2.32;95.92;99443.53;2969989;80;21065;-70
2021/12/05 22:22:37;;;;;;;88.90;46.40;;;;;;;2.28;96.07;99445.98;2970158;80;21013;-70
2021/12/05 22:26:42;;;;;;;78.25;45.95;;;;;;;2.32;95.95;99455.34;2970444;80;21010;-70
2021/12/05 22:30:44;;;;;;;80.05;44.33;;;;;;;2.34;95.82;99448.22;2970178;80;21003;-70
2021/12/05 22:34:46;;;;;;;80.53;45.43;;;;;;;2.27;95.87;99458.27;2970445;80;20963;-70
2021/12/05 22:38:48;;;;;;;73.30;44.25;;;;;;;2.31;95.95;99462.84;2970378;80;21519;-70
2021/12/05 22:42:51;;;;;;;79.95;45.20;;;;;;;2.36;95.87;99460.81;2970228;80;21574;-70
2021/12/05 22:46:53;;;;;;;93.03;50.75;;;;;;;2.34;95.96;99463.97;2970452;80;20979;-70
2021/12/05 22:50:55;;;;;;;89.32;49.20;;;;;;;2.37;96.08;99474.31;2970612;80;21011;-70
2021/12/05 22:54:57;;;;;;;75.55;42.85;;;;;;;2.46;95.57;99470.73;2970828;80;20982;-70
2021/12/05 22:58:58;;;;;;;76.47;47.58;;;;;;;2.41;95.49;99482.36;2970994;80;20974;-70
2021/12/05 23:03:00;;;;;;;62.48;36.75;;;;;;;2.39;95.76;99480.30;2970879;80;20928;-70
2021/12/05 23:07:04;;;;;;;70.37;43.25;;;;;;;2.50;95.27;99482.73;2970782;80;21491;-70
2021/12/05 23:11:09;;;;;;;62.95;38.58;;;;;;;2.47;95.26;99477.22;2975031;80;21018;-69
2021/12/05 23:15:10;;;;;;;61.08;39.38;;;;;;;2.45;95.46;99486.11;2978658;80;21002;-70
2021/12/05 23:19:13;;;;;;;66.12;38.98;;;;;;;2.45;95.47;99487.42;2978913;80;20958;-69
2021/12/05 23:23:15;;;;;;;70.35;44.45;;;;;;;2.38;95.61;99491.74;2978649;80;20955;-69
2021/12/05 23:27:17;;;;;;;66.82;42.08;;;;;;;2.52;95.25;99499.23;2978916;80;20990;-69
2021/12/05 23:31:19;;;;;;;66.07;38.53;;;;;;;2.68;95.12;99498.67;2978746;80;21029;-69
2021/12/05 23:35:22;;;;;;;80.50;42.30;;;;;;;2.77;94.32;99494.62;2978861;80;20935;-69
2021/12/05 23:39:23;;;;;;;80.15;47.05;;;;;;;2.90;93.52;99501.27;2978870;80;20963;-70
2021/12/05 23:43:25;;;;;;;76.05;45.90;;;;;;;2.87;93.18;99508.52;2979070;80;21010;-69
2021/12/05 23:47:27;;;;;;;73.07;44.08;;;;;;;2.73;93.39;99511.98;2978743;80;20991;-70
2021/12/05 23:51:28;;;;;;;51.98;38.53;;;;;;;2.79;93.58;99511.13;2979021;80;20994;-70
2021/12/05 23:55:31;;;;;;;64.32;38.70;;;;;;;2.78;93.48;99515.19;2979328;80;20946;-70
2021/12/05 23:59:33;;;;;;;71.40;41.37;;;;;;;2.81;93.44;99509.25;2979573;80;21569;-70
